Time;durP1;ratioP1;P1;durP2;ratioP2;P2;SDS_P1;SDS_P2;PMS_P1;PMS_P2;Temp;Humidity;BMP_temperature;BMP_pressure;BME280_temperature;BME280_humidity;BME280_pressure;Samples;Min_cycle;Max_cycle;Signal;HPM_P1;HPM_P2
2023/06/06 00:00:20;;;;;;;8.70;2.17;;;;;;;15.52;56.44;101303.56;5052530;28;20063;-67
2023/06/06 00:02:48;;;;;;;4.18;2.38;;;;;;;15.46;56.63;101299.72;5052900;28;20052;-67
2023/06/06 00:05:16;;;;;;;5.85;2.03;;;;;;;15.54;56.46;101300.72;5052568;28;20065;-70
2023/06/06 00:07:45;;;;;;;7.82;1.90;;;;;;;15.54;56.46;101296.13;5052492;28;20129;-69
2023/06/06 00:10:14;;;;;;;7.32;2.40;;;;;;;15.54;56.55;101295.31;5051991;28;20041;-71
2023/06/06 00:12:44;;;;;;;6.07;2.60;;;;;;;15.40;57.03;101299.63;5052598;28;20455;-70
2023/06/06 00:15:13;;;;;;;11.90;2.03;;;;;;;15.46;56.77;101288.06;5052728;28;20086;-71
2023/06/06 00:17:44;;;;;;;5.75;2.08;;;;;;;15.44;57.08;101295.53;5052359;28;20479;-71
2023/06/06 00:20:12;;;;;;;5.50;2.20;;;;;;;15.41;57.28;101295.88;5052865;28;20061;-71
2023/06/06 00:22:39;;;;;;;4.35;2.30;;;;;;;15.44;56.89;101290.13;5052130;28;20045;-70
2023/06/06 00:25:07;;;;;;;8.50;1.95;;;;;;;15.40;57.02;101289.63;5051828;28;20480;-69
2023/06/06 00:27:34;;;;;;;8.98;2.42;;;;;;;15.16;57.39;101284.38;5051840;28;20098;-70
2023/06/06 00:30:01;;;;;;;5.88;2.28;;;;;;;15.07;58.07;101286.25;5050766;28;20080;-68
2023/06/06 00:32:28;;;;;;;6.05;2.17;;;;;;;15.07;57.88;101290.81;5051253;28;20052;-68
2023/06/06 00:34:55;;;;;;;5.68;2.22;;;;;;;15.20;57.93;101283.00;5051688;28;20060;-68
2023/06/06 00:37:21;;;;;;;6.50;2.33;;;;;;;15.09;58.13;101286.09;5051939;28;20060;-68
2023/06/06 00:39:48;;;;;;;4.85;2.10;;;;;;;14.94;58.55;101289.50;5070538;28;20098;-69
2023/06/06 00:42:15;;;;;;;4.90;1.90;;;;;;;15.00;58.79;101285.28;5071829;28;20044;-69
2023/06/06 00:44:42;;;;;;;10.75;2.33;;;;;;;15.12;58.20;101281.19;5071977;28;20093;-69
2023/06/06 00:47:11;;;;;;;3.15;2.10;;;;;;;14.94;58.98;101288.66;5070922;28;20045;-67
2023/06/06 00:49:37;;;;;;;5.53;2.05;;;;;;;14.92;59.07;101279.91;5071280;28;20070;-68
2023/06/06 00:52:05;;;;;;;5.50;2.10;;;;;;;15.15;58.56;101286.19;5071316;28;20049;-68
2023/06/06 00:54:34;;;;;;;5.68;2.13;;;;;;;15.18;58.29;101285.00;5070407;28;20155;-68
2023/06/06 00:57:02;;;;;;;4.20;2.00;;;;;;;15.23;58.17;101286.19;5060001;28;20048;-67
2023/06/06 00:59:29;;;;;;;5.15;2.30;;;;;;;15.19;58.25;101282.16;5051164;28;20073;-68
2023/06/06 01:01:58;;;;;;;6.50;2.42;;;;;;;14.97;58.89;101282.91;5050757;28;20060;-68
2023/06/06 01:04:26;;;;;;;8.23;2.88;;;;;;;14.82;59.21;101284.69;5051779;28;20170;-70
2023/06/06 01:07:24;;;;;;;7.95;2.47;;;;;;;14.81;59.90;101278.44;5051414;28;20083;-68
2023/06/06 01:09:51;;;;;;;8.98;2.40;;;;;;;14.87;59.41;101276.88;5048242;28;20040;-67
2023/06/06 01:12:43;;;;;;;7.53;2.60;;;;;;;14.96;59.23;101281.25;5046744;28;20064;-67
2023/06/06 01:15:24;;;;;;;3.85;2.00;;;;;;;15.08;58.82;101271.72;5050001;28;20159;-68
2023/06/06 01:17:51;;;;;;;14.32;2.53;;;;;;;14.96;59.16;101268.56;5050693;28;20048;-68
2023/06/06 01:20:21;;;;;;;4.65;2.47;;;;;;;14.67;59.92;101274.56;5050823;28;20075;-69
2023/06/06 01:22:48;;;;;;;6.53;2.25;;;;;;;14.74;59.91;101277.47;5048013;28;20459;-68
2023/06/06 01:25:19;;;;;;;11.93;2.60;;;;;;;14.87;59.47;101271.47;5049813;28;20111;-69
2023/06/06 01:27:46;;;;;;;6.60;2.00;;;;;;;14.69;59.52;101277.09;5048582;28;20049;-69
2023/06/06 01:30:16;;;;;;;4.32;2.00;;;;;;;14.74;59.75;101272.88;5049726;28;20663;-69
2023/06/06 01:32:51;;;;;;;8.35;2.40;;;;;;;14.92;59.27;101272.66;5048926;28;20053;-69
2023/06/06 01:35:35;;;;;;;12.20;2.42;;;;;;;14.77;59.50;101277.94;5048493;28;20049;-68
2023/06/06 01:38:24;;;;;;;8.90;2.78;;;;;;;14.68;59.65;101273.53;5053919;28;20519;-69
2023/06/06 01:40:53;;;;;;;6.47;2.42;;;;;;;14.75;59.44;101271.88;5069704;28;20040;-69
2023/06/06 01:43:22;;;;;;;8.85;2.75;;;;;;;14.70;59.61;101274.22;5069911;28;20045;-69
2023/06/06 01:45:50;;;;;;;8.73;2.45;;;;;;;14.74;59.40;101278.28;5069554;28;20064;-69
2023/06/06 01:48:18;;;;;;;9.05;2.40;;;;;;;14.81;59.22;101274.88;5068955;28;20106;-68
2023/06/06 01:50:46;;;;;;;8.15;2.40;;;;;;;15.01;58.58;101276.13;5067552;28;20040;-69
2023/06/06 01:53:13;;;;;;;5.55;2.60;;;;;;;14.88;58.87;101284.81;5068961;28;20048;-69
2023/06/06 01:55:41;;;;;;;6.70;2.33;;;;;;;14.89;58.52;101285.66;5068417;28;20082;-68
2023/06/06 01:58:08;;;;;;;6.95;2.80;;;;;;;15.00;58.46;101280.72;5069829;28;20052;-68
2023/06/06 02:00:35;;;;;;;5.53;2.17;;;;;;;14.87;58.71;101279.59;5068125;28;20044;-69
2023/06/06 02:03:02;;;;;;;5.72;2.60;;;;;;;15.03;58.45;101274.13;5069873;28;20056;-69
2023/06/06 02:05:29;;;;;;;7.72;2.53;;;;;;;14.95;58.48;101276.88;5068735;28;20143;-69
2023/06/06 02:07:55;;;;;;;4.20;2.10;;;;;;;14.87;58.46;101282.28;5067438;28;20098;-69
2023/06/06 02:10:22;;;;;;;7.30;3.20;;;;;;;14.98;58.16;101285.47;5069139;28;20052;-69
2023/06/06 02:12:49;;;;;;;9.10;2.20;;;;;;;14.62;58.81;101290.44;5066988;28;20049;-69
2023/06/06 02:15:26;;;;;;;15.70;2.70;;;;;;;14.87;58.51;101285.81;5069412;28;20044;-69
2023/06/06 02:17:53;;;;;;;7.05;2.13;;;;;;;14.73;58.56;101279.28;5067305;28;20135;-70
2023/06/06 02:20:19;;;;;;;4.35;2.65;;;;;;;14.74;58.36;101281.00;5067161;28;20044;-70
2023/06/06 02:22:46;;;;;;;6.97;2.45;;;;;;;14.73;58.54;101276.59;5049370;28;20060;-69
2023/06/06 02:25:13;;;;;;;6.43;2.60;;;;;;;14.73;58.75;101273.03;5068248;28;20072;-68
2023/06/06 02:27:43;;;;;;;8.48;2.63;;;;;;;14.75;58.34;101271.88;5067972;28;20138;-68
2023/06/06 02:30:10;;;;;;;6.72;2.65;;;;;;;14.74;58.21;101278.28;5068425;28;20067;-68
2023/06/06 02:32:37;;;;;;;6.85;2.70;;;;;;;14.81;58.12;101266.75;5067661;28;20415;-68
2023/06/06 02:35:04;;;;;;;7.13;2.33;;;;;;;14.67;58.12;101266.47;5069144;28;20044;-70
2023/06/06 02:37:32;;;;;;;11.30;2.60;;;;;;;14.74;57.97;101272.88;5068666;28;20097;-68
2023/06/06 02:40:08;;;;;;;6.70;2.50;;;;;;;14.80;57.90;101267.78;5027640;28;20045;-69
2023/06/06 02:42:38;;;;;;;6.90;2.67;;;;;;;14.85;57.88;101255.47;5027541;28;20045;-68
2023/06/06 02:45:06;;;;;;;8.73;2.25;;;;;;;14.61;58.36;101259.06;5029098;28;20041;-68
2023/06/06 02:47:33;;;;;;;5.13;2.45;;;;;;;14.81;58.37;101261.38;5027867;28;20489;-69
2023/06/06 02:49:59;;;;;;;5.05;2.15;;;;;;;14.76;58.50;101260.03;5027590;28;20049;-69
2023/06/06 02:52:28;;;;;;;9.98;2.33;;;;;;;14.84;58.46;101263.72;5028038;28;20115;-69
2023/06/06 02:54:54;;;;;;;6.10;2.55;;;;;;;14.87;58.19;101264.22;5029065;28;20053;-68
2023/06/06 02:57:21;;;;;;;5.68;2.17;;;;;;;14.90;58.39;101265.72;5028835;28;20103;-69
2023/06/06 02:59:47;;;;;;;3.47;2.13;;;;;;;14.76;58.41;101262.72;5026155;28;20075;-69
2023/06/06 03:02:18;;;;;;;2.95;2.10;;;;;;;14.72;58.31;101264.09;5028631;28;20057;-69
2023/06/06 03:04:45;;;;;;;10.60;2.55;;;;;;;14.80;58.08;101262.41;5027364;28;20057;-69
2023/06/06 03:07:12;;;;;;;8.35;3.00;;;;;;;14.83;58.12;101262.88;5028394;28;20045;-68
2023/06/06 03:09:39;;;;;;;4.65;2.63;;;;;;;14.85;58.25;101251.91;5028909;28;20045;-70
2023/06/06 03:12:06;;;;;;;12.82;2.80;;;;;;;14.85;57.97;101251.91;5044109;28;20094;-69
2023/06/06 03:14:33;;;;;;;6.85;2.15;;;;;;;14.75;57.98;101261.06;5051617;28;20051;-69
2023/06/06 03:17:13;;;;;;;6.47;2.53;;;;;;;14.77;58.18;101256.34;5052737;28;20055;-69
2023/06/06 03:19:40;;;;;;;9.32;2.85;;;;;;;14.81;57.86;101254.13;5052162;28;20044;-69
2023/06/06 03:22:06;;;;;;;6.43;2.75;;;;;;;14.74;57.99;101254.00;5052541;28;20459;-70
2023/06/06 03:24:35;;;;;;;5.80;2.65;;;;;;;14.76;58.06;101257.34;5051374;28;20041;-69
2023/06/06 03:27:03;;;;;;;4.18;2.15;;;;;;;14.79;57.95;101255.31;5052702;28;20071;-69
2023/06/06 03:29:30;;;;;;;10.38;2.72;;;;;;;14.82;58.12;101255.81;5051249;28;20488;-69
2023/06/06 03:31:56;;;;;;;6.70;3.00;;;;;;;14.84;58.07;101261.03;5051310;28;20041;-70
2023/06/06 03:34:25;;;;;;;5.68;2.45;;;;;;;14.86;58.06;101254.44;5052245;28;20056;-69
2023/06/06 03:36:52;;;;;;;11.88;2.30;;;;;;;14.84;58.23;101258.31;5051931;28;20107;-69
2023/06/06 03:39:18;;;;;;;3.65;2.15;;;;;;;14.85;58.21;101260.88;5051667;28;20059;-69
2023/06/06 03:41:45;;;;;;;8.38;2.78;;;;;;;14.76;58.33;101254.63;5049733;28;20053;-69
2023/06/06 03:44:12;;;;;;;12.88;2.95;;;;;;;14.73;58.29;101260.38;5052124;28;20052;-70
2023/06/06 03:46:38;;;;;;;5.82;2.55;;;;;;;14.75;58.16;101263.75;5051349;28;20041;-70
2023/06/06 03:49:05;;;;;;;7.78;2.70;;;;;;;14.68;58.53;101260.03;5051846;28;20475;-69
2023/06/06 03:51:31;;;;;;;4.57;2.22;;;;;;;14.75;58.65;101252.97;5052436;28;20045;-69
2023/06/06 03:53:58;;;;;;;7.72;2.90;;;;;;;14.64;58.50;101252.47;5052821;28;20048;-69
2023/06/06 03:56:25;;;;;;;5.85;2.33;;;;;;;14.68;58.64;101254.66;5051776;28;20568;-68
2023/06/06 03:58:51;;;;;;;8.88;2.90;;;;;;;14.68;58.78;101257.34;5051025;28;20400;-70
2023/06/06 04:01:21;;;;;;;9.02;2.90;;;;;;;14.74;58.81;101253.16;5055466;28;20044;-69
2023/06/06 04:03:47;;;;;;;4.43;2.60;;;;;;;14.71;58.81;101250.75;5053283;28;20048;-69
2023/06/06 04:06:14;;;;;;;7.72;3.03;;;;;;;14.76;58.98;101259.19;5051930;28;21525;-70
2023/06/06 04:08:41;;;;;;;10.52;2.60;;;;;;;14.78;58.73;101257.19;5050278;28;20397;-69
2023/06/06 04:11:07;;;;;;;5.30;2.53;;;;;;;14.48;59.52;101256.06;5055440;28;20076;-69
2023/06/06 04:13:35;;;;;;;9.95;2.40;;;;;;;14.77;59.27;101256.34;5071659;28;20511;-69
2023/06/06 04:16:01;;;;;;;6.10;2.47;;;;;;;14.72;59.48;101256.00;5071145;28;20044;-69
2023/06/06 04:18:28;;;;;;;4.72;2.75;;;;;;;14.85;59.35;101249.22;5070804;28;20111;-69
2023/06/06 04:20:54;;;;;;;6.07;2.53;;;;;;;14.90;59.29;101253.06;5067447;28;20067;-68
2023/06/06 04:23:21;;;;;;;5.93;3.30;;;;;;;14.96;59.17;101256.94;5069939;28;20048;-66
2023/06/06 04:25:48;;;;;;;10.45;2.78;;;;;;;14.92;59.22;101247.50;5071144;28;20046;-66
2023/06/06 04:28:19;;;;;;;11.35;3.58;;;;;;;14.97;59.00;101253.19;5070371;28;20464;-70
2023/06/06 04:30:47;;;;;;;8.43;3.15;;;;;;;14.88;58.92;101252.41;5069655;28;20049;-69
2023/06/06 04:33:15;;;;;;;6.97;3.03;;;;;;;14.73;59.00;101257.69;5070414;28;20044;-70
2023/06/06 04:35:42;;;;;;;10.20;3.53;;;;;;;14.77;58.90;101255.47;5071089;28;20036;-69
2023/06/06 04:38:10;;;;;;;10.35;2.88;;;;;;;14.84;58.88;101250.22;5061894;28;20139;-69
2023/06/06 04:40:39;;;;;;;13.45;3.53;;;;;;;14.92;58.90;101255.59;5030410;28;20045;-69
2023/06/06 04:43:27;;;;;;;10.77;3.35;;;;;;;14.87;58.86;101247.16;5031250;28;20444;-70
2023/06/06 04:45:56;;;;;;;6.45;3.05;;;;;;;14.73;58.76;101257.69;5031486;28;20050;-71
2023/06/06 04:48:25;;;;;;;8.50;3.13;;;;;;;14.93;58.12;101243.78;5030204;28;20164;-71
2023/06/06 04:50:53;;;;;;;7.93;3.15;;;;;;;15.05;57.66;101245.06;5030711;28;20065;-71
2023/06/06 04:53:20;;;;;;;13.23;3.42;;;;;;;15.13;57.27;101247.72;5030366;28;20049;-71
2023/06/06 04:55:47;;;;;;;11.30;3.03;;;;;;;15.27;57.22;101256.09;5033677;28;20103;-70
2023/06/06 04:58:14;;;;;;;12.50;2.72;;;;;;;15.39;57.37;101251.94;5049214;28;20051;-70
2023/06/06 05:00:45;;;;;;;11.18;3.55;;;;;;;15.35;55.81;101258.75;5049377;28;20481;-71
2023/06/06 05:03:16;;;;;;;12.77;3.13;;;;;;;15.19;55.88;101257.81;5048778;28;20049;-70
2023/06/06 05:05:43;;;;;;;14.38;3.53;;;;;;;15.42;55.89;101248.88;5047368;28;20076;-69
2023/06/06 05:08:09;;;;;;;14.20;3.35;;;;;;;15.52;55.89;101246.78;5030650;28;20103;-70
2023/06/06 05:10:39;;;;;;;11.07;3.95;;;;;;;15.40;55.52;101253.66;5029383;28;20053;-68
2023/06/06 05:13:06;;;;;;;7.10;3.28;;;;;;;15.59;54.75;101250.44;5031783;28;20049;-70
2023/06/06 05:15:32;;;;;;;6.05;2.90;;;;;;;15.87;54.62;101250.75;5032911;28;20045;-70
2023/06/06 05:17:59;;;;;;;8.93;3.05;;;;;;;15.50;54.04;101251.56;5050546;28;20048;-71
2023/06/06 05:20:25;;;;;;;6.95;2.75;;;;;;;15.48;53.27;101253.59;5048310;28;20045;-70
2023/06/06 05:22:52;;;;;;;12.02;3.40;;;;;;;15.71;52.98;101254.47;5049943;28;20049;-71
2023/06/06 05:25:18;;;;;;;8.60;2.95;;;;;;;15.84;53.83;101248.41;5050487;28;20052;-70
2023/06/06 05:27:46;;;;;;;12.80;2.67;;;;;;;16.04;53.38;101254.16;5031662;28;20052;-71
2023/06/06 05:30:13;;;;;;;17.02;2.90;;;;;;;15.88;53.08;101248.91;5050030;28;20131;-70
2023/06/06 05:32:40;;;;;;;11.27;3.38;;;;;;;15.95;51.94;101249.84;5048900;28;20087;-70
2023/06/06 05:35:07;;;;;;;16.98;3.03;;;;;;;16.11;51.95;101265.94;5050638;28;20131;-70
2023/06/06 05:37:34;;;;;;;14.82;3.60;;;;;;;15.87;52.08;101268.88;5049233;28;20166;-70
2023/06/06 05:40:00;;;;;;;9.52;3.15;;;;;;;15.98;51.61;101265.72;5048181;28;20044;-70
2023/06/06 05:42:27;;;;;;;15.48;3.50;;;;;;;16.16;52.07;101268.13;5048768;28;20068;-70
2023/06/06 05:44:54;;;;;;;9.48;3.20;;;;;;;16.09;51.46;101268.00;5049090;28;20416;-70
2023/06/06 05:47:20;;;;;;;15.40;2.92;;;;;;;16.10;51.37;101283.22;5050853;28;20459;-70
2023/06/06 05:49:47;;;;;;;10.18;3.30;;;;;;;16.38;51.04;101267.19;5049209;28;20049;-70
2023/06/06 05:52:14;;;;;;;8.10;2.90;;;;;;;16.16;50.67;101278.94;5019110;28;20044;-69
2023/06/06 05:54:40;;;;;;;13.93;3.20;;;;;;;16.33;51.00;101275.06;5034099;28;20041;-69
2023/06/06 05:57:25;;;;;;;10.93;3.55;;;;;;;16.32;50.69;101277.94;5050495;28;20066;-69
2023/06/06 05:59:52;;;;;;;13.13;3.90;;;;;;;16.39;51.12;101279.72;5035416;28;20074;-69
2023/06/06 06:02:20;;;;;;;12.73;3.40;;;;;;;16.41;51.09;101287.66;5036549;28;20496;-67
2023/06/06 06:04:52;;;;;;;11.32;3.10;;;;;;;16.47;51.51;101280.66;5048768;28;20049;-66
2023/06/06 06:07:19;;;;;;;17.38;2.92;;;;;;;16.04;51.77;101283.09;5050226;28;20044;-67
2023/06/06 06:09:47;;;;;;;16.75;3.28;;;;;;;15.94;51.29;101289.59;5049529;28;20073;-67
2023/06/06 06:12:15;;;;;;;22.63;2.95;;;;;;;16.03;51.39;101293.09;5061842;28;20086;-67
2023/06/06 06:14:41;;;;;;;13.02;3.17;;;;;;;15.95;51.46;101288.59;5067827;28;20045;-67
2023/06/06 06:17:08;;;;;;;15.93;3.78;;;;;;;15.96;51.66;101302.97;5069355;28;20082;-67
2023/06/06 06:19:34;;;;;;;13.10;3.47;;;;;;;15.85;51.48;101293.41;5050175;28;20048;-67
2023/06/06 06:22:01;;;;;;;15.30;3.35;;;;;;;15.96;51.13;101294.84;5044664;28;20045;-67
2023/06/06 06:24:30;;;;;;;12.10;3.05;;;;;;;16.01;51.24;101303.25;5053278;28;20462;-66
2023/06/06 06:26:57;;;;;;;8.65;3.08;;;;;;;16.04;51.19;101299.34;5069367;28;20049;-66
2023/06/06 06:29:24;;;;;;;10.45;2.88;;;;;;;16.36;50.71;101292.78;5071464;28;20068;-66
2023/06/06 06:31:50;;;;;;;15.35;3.70;;;;;;;16.67;50.08;101293.47;5071264;28;20036;-66
2023/06/06 06:34:17;;;;;;;16.02;3.83;;;;;;;16.75;49.36;101297.13;5071682;28;20048;-66
2023/06/06 06:36:44;;;;;;;10.93;3.55;;;;;;;16.66;48.71;101302.66;5070080;28;20053;-64
2023/06/06 06:39:10;;;;;;;7.35;2.80;;;;;;;16.63;48.31;101305.72;5071799;28;20093;-66
2023/06/06 06:41:37;;;;;;;9.18;2.92;;;;;;;16.51;49.24;101295.56;5070692;28;20060;-66
2023/06/06 06:44:03;;;;;;;6.30;3.15;;;;;;;16.77;49.10;101297.78;5070959;28;20051;-66
2023/06/06 06:46:30;;;;;;;11.18;3.38;;;;;;;16.81;49.02;101299.94;5070372;28;20119;-66
2023/06/06 06:48:57;;;;;;;12.00;3.22;;;;;;;17.12;49.20;101302.41;5070305;28;20052;-66
2023/06/06 06:51:23;;;;;;;9.30;2.75;;;;;;;16.85;49.19;101300.41;5071585;28;20102;-66
2023/06/06 06:53:52;;;;;;;8.93;3.10;;;;;;;17.01;49.12;101305.63;5069026;28;20448;-66
2023/06/06 06:56:19;;;;;;;8.77;2.97;;;;;;;17.01;49.03;101305.63;5070184;28;20489;-66
2023/06/06 06:58:46;;;;;;;18.50;3.20;;;;;;;17.32;49.11;101296.41;5069878;28;20106;-66
2023/06/06 07:01:14;;;;;;;20.60;3.50;;;;;;;17.39;49.58;101307.38;5071100;28;20455;-66
2023/06/06 07:03:44;;;;;;;9.00;3.03;;;;;;;17.60;49.07;101310.09;5071327;28;20044;-66
2023/06/06 07:06:11;;;;;;;13.82;4.13;;;;;;;17.42;48.41;101309.72;5069792;28;20048;-67
2023/06/06 07:08:41;;;;;;;15.02;3.70;;;;;;;17.17;49.39;101310.00;5069234;28;20507;-67
2023/06/06 07:11:08;;;;;;;11.77;3.60;;;;;;;17.33;50.08;101309.78;5066555;28;20052;-66
2023/06/06 07:13:35;;;;;;;12.70;3.63;;;;;;;17.46;49.35;101319.13;5048894;28;20041;-68
2023/06/06 07:16:01;;;;;;;23.40;3.80;;;;;;;17.44;48.92;101315.75;5046731;28;20408;-64
2023/06/06 07:18:28;;;;;;;7.80;3.00;;;;;;;17.33;48.63;101314.34;5048179;28;20394;-67
2023/06/06 07:20:55;;;;;;;11.40;3.75;;;;;;;17.30;49.12;101318.31;5071557;28;20071;-67
2023/06/06 07:23:21;;;;;;;14.43;3.60;;;;;;;17.33;49.27;101311.66;5069426;28;20044;-65
2023/06/06 07:25:48;;;;;;;17.83;3.35;;;;;;;17.69;49.55;101311.69;5068924;28;20067;-66
2023/06/06 07:28:15;;;;;;;12.52;3.70;;;;;;;17.98;47.88;101313.41;5068442;28;20045;-67
2023/06/06 07:30:41;;;;;;;9.30;3.65;;;;;;;18.39;47.91;101315.47;5066222;28;20063;-67
2023/06/06 07:33:08;;;;;;;12.98;3.45;;;;;;;18.86;47.06;101313.88;5066826;28;20111;-67
2023/06/06 07:35:36;;;;;;;11.50;3.58;;;;;;;18.87;46.12;101317.44;5028877;28;20076;-67
2023/06/06 07:38:02;;;;;;;13.43;3.53;;;;;;;18.63;46.16;101311.44;5046950;28;20107;-67
2023/06/06 07:40:29;;;;;;;13.77;2.95;;;;;;;18.65;46.23;101309.34;5049183;28;20045;-67
2023/06/06 07:42:57;;;;;;;17.00;3.97;;;;;;;18.87;46.72;101304.69;5050205;28;20041;-67
2023/06/06 07:45:24;;;;;;;19.23;3.85;;;;;;;19.09;46.23;101315.50;5049479;28;20444;-67
2023/06/06 07:47:51;;;;;;;12.23;3.85;;;;;;;19.21;45.25;101314.72;5047489;28;20051;-67
2023/06/06 07:50:17;;;;;;;17.15;3.78;;;;;;;19.53;45.64;101306.84;5049082;28;20493;-68
2023/06/06 07:52:45;;;;;;;16.13;3.50;;;;;;;19.47;44.90;101303.06;5037303;28;20053;-68
2023/06/06 07:55:11;;;;;;;15.48;3.45;;;;;;;19.00;45.02;101296.63;5047828;28;20408;-68
2023/06/06 07:57:39;;;;;;;16.90;3.15;;;;;;;19.28;44.82;101298.41;5051596;28;20049;-68
2023/06/06 08:00:10;;;;;;;10.68;3.33;;;;;;;19.40;44.77;101299.50;5056631;28;20068;-67
2023/06/06 08:02:39;;;;;;;11.45;3.67;;;;;;;19.12;45.80;101296.03;5071607;28;20127;-67
2023/06/06 08:05:07;;;;;;;6.95;3.20;;;;;;;19.31;44.13;101303.47;5071506;28;20048;-67
2023/06/06 08:07:36;;;;;;;7.32;3.45;;;;;;;19.05;43.67;101303.34;5070150;28;20044;-66
2023/06/06 08:10:03;;;;;;;19.88;3.55;;;;;;;19.05;43.70;101301.44;5071376;28;20059;-67
2023/06/06 08:12:29;;;;;;;12.05;3.58;;;;;;;19.26;43.90;101306.78;5070783;28;20450;-66
2023/06/06 08:14:56;;;;;;;13.73;4.07;;;;;;;19.61;42.94;101312.09;5071823;28;20040;-66
2023/06/06 08:17:22;;;;;;;13.45;4.32;;;;;;;19.62;42.83;101305.63;5072678;28;20048;-67
2023/06/06 08:19:49;;;;;;;7.38;3.47;;;;;;;19.89;42.42;101306.53;5070328;28;20060;-67
2023/06/06 08:22:16;;;;;;;13.85;4.18;;;;;;;20.19;42.69;101303.41;5070943;28;20048;-68
2023/06/06 08:24:43;;;;;;;15.13;3.53;;;;;;;20.59;42.00;101296.06;5069798;28;20129;-68
2023/06/06 08:27:10;;;;;;;14.23;3.88;;;;;;;20.46;42.25;101300.69;5071392;28;20565;-67
2023/06/06 08:29:37;;;;;;;9.90;3.22;;;;;;;20.14;41.94;101300.47;5070985;28;20048;-67
2023/06/06 08:32:04;;;;;;;14.05;3.63;;;;;;;20.09;42.60;101300.25;5071260;28;20090;-68
2023/06/06 08:34:31;;;;;;;13.30;3.33;;;;;;;19.81;42.14;101306.72;5070466;28;20044;-66
2023/06/06 08:36:57;;;;;;;7.63;3.28;;;;;;;19.84;41.43;101302.78;5071807;28;20052;-66
2023/06/06 08:39:24;;;;;;;8.88;3.50;;;;;;;19.54;41.93;101297.66;5055337;28;20381;-66
2023/06/06 08:41:53;;;;;;;9.93;3.40;;;;;;;19.31;42.25;101308.91;5048548;28;20041;-65
2023/06/06 08:44:23;;;;;;;13.52;4.00;;;;;;;19.22;42.74;101305.50;5050715;28;20488;-65
2023/06/06 08:46:55;;;;;;;15.70;4.07;;;;;;;19.05;42.74;101303.34;5050664;28;20045;-67
2023/06/06 08:49:21;;;;;;;;;;;;;;;18.93;42.96;101301.19;5051604;28;20106;-66
2023/06/06 08:51:50;;;;;;;21.13;3.80;;;;;;;18.92;43.27;101304.06;5051976;28;20356;-66
2023/06/06 08:54:20;;;;;;;14.13;3.67;;;;;;;19.11;43.36;101313.41;5050376;28;20056;-67
2023/06/06 08:56:48;;;;;;;8.88;3.50;;;;;;;19.20;42.97;101313.00;5051953;28;20057;-66
2023/06/06 08:59:16;;;;;;;14.60;3.55;;;;;;;18.99;43.48;101305.81;5051041;28;20409;-67
2023/06/06 09:01:43;;;;;;;11.63;3.50;;;;;;;19.12;43.68;101301.50;5050200;28;20056;-67
2023/06/06 09:04:13;;;;;;;10.52;3.67;;;;;;;18.99;43.65;101315.84;5050946;28;20103;-67
2023/06/06 09:06:43;;;;;;;14.60;3.53;;;;;;;18.79;44.04;101313.00;5048046;28;20052;-67
2023/06/06 09:09:12;;;;;;;11.85;3.67;;;;;;;18.81;44.15;101305.47;5050976;28;20052;-67
2023/06/06 09:11:39;;;;;;;9.27;3.65;;;;;;;18.99;44.13;101302.25;5059099;28;20094;-66
2023/06/06 09:14:05;;;;;;;13.07;4.40;;;;;;;19.47;44.04;101303.06;5070900;28;20079;-68
2023/06/06 09:16:32;;;;;;;14.05;4.15;;;;;;;19.56;43.46;101300.19;5070517;28;20052;-67
2023/06/06 09:19:01;;;;;;;15.05;3.72;;;;;;;19.64;42.82;101308.13;5068513;28;20443;-70
2023/06/06 09:21:32;;;;;;;17.92;4.07;;;;;;;19.83;42.75;101306.50;5070352;28;20051;-67
2023/06/06 09:24:00;;;;;;;11.27;3.97;;;;;;;20.09;42.94;101303.81;5070696;28;20037;-67
2023/06/06 09:26:28;;;;;;;11.88;3.65;;;;;;;20.37;41.93;101309.03;5070433;28;20480;-67
2023/06/06 09:28:55;;;;;;;9.98;4.00;;;;;;;20.14;42.54;101314.06;5070912;28;20094;-68
2023/06/06 09:31:29;;;;;;;12.07;3.85;;;;;;;20.51;42.62;101312.63;5070723;28;20048;-67
2023/06/06 09:33:58;;;;;;;9.20;3.47;;;;;;;20.25;42.39;101305.31;5070657;28;20083;-67
2023/06/06 09:36:29;;;;;;;10.15;3.45;;;;;;;20.63;42.28;101310.94;5071500;28;20040;-67
2023/06/06 09:39:12;;;;;;;14.25;3.80;;;;;;;20.56;42.08;101304.66;5058994;28;20063;-67
2023/06/06 09:41:42;;;;;;;10.40;3.92;;;;;;;20.68;42.31;101308.41;5039974;28;20119;-67
2023/06/06 09:44:23;;;;;;;17.15;4.35;;;;;;;20.65;42.57;101305.25;5051098;28;20059;-67
2023/06/06 09:46:58;;;;;;;11.83;3.87;;;;;;;20.86;41.67;101301.44;5050890;28;20095;-67
2023/06/06 09:49:25;;;;;;;10.32;3.80;;;;;;;20.78;42.20;101299.78;5050891;28;20678;-67
2023/06/06 09:51:53;;;;;;;15.40;3.42;;;;;;;20.72;42.03;101303.34;5050795;28;20045;-67
2023/06/06 09:54:23;;;;;;;13.18;4.00;;;;;;;20.60;42.30;101308.63;5050883;28;20055;-67
2023/06/06 09:56:51;;;;;;;8.32;3.58;;;;;;;20.55;42.59;101304.88;5050136;28;20118;-67
2023/06/06 09:59:21;;;;;;;12.75;3.47;;;;;;;20.75;42.49;101305.66;5049810;28;20128;-67
2023/06/06 10:01:51;;;;;;;8.30;3.45;;;;;;;20.65;43.02;101308.00;5049696;28;20044;-67
2023/06/06 10:04:18;;;;;;;9.07;3.58;;;;;;;20.97;42.91;101300.75;5050392;28;20071;-67
2023/06/06 10:06:46;;;;;;;7.40;3.35;;;;;;;20.43;43.45;101310.97;5049285;28;20458;-67
2023/06/06 10:09:15;;;;;;;16.23;4.07;;;;;;;20.82;43.26;101309.19;5050022;28;20045;-67
2023/06/06 10:11:42;;;;;;;11.27;3.60;;;;;;;20.97;43.06;101302.66;5058916;28;20051;-68
2023/06/06 10:14:10;;;;;;;12.05;3.60;;;;;;;21.15;43.00;101302.84;5050135;28;20041;-67
2023/06/06 10:16:36;;;;;;;10.32;3.72;;;;;;;21.42;42.82;101306.25;5049061;28;20056;-67
2023/06/06 10:19:03;;;;;;;13.65;4.00;;;;;;;21.56;42.95;101301.56;5049773;28;20075;-67
2023/06/06 10:21:31;;;;;;;11.27;3.95;;;;;;;21.81;42.89;101299.75;5050794;28;20064;-67
2023/06/06 10:23:57;;;;;;;16.60;3.90;;;;;;;22.26;42.44;101301.50;5040364;28;20045;-67
2023/06/06 10:26:32;;;;;;;7.80;3.60;;;;;;;22.31;41.75;101299.75;5050866;28;20131;-67
2023/06/06 10:29:04;;;;;;;8.77;3.75;;;;;;;22.18;41.57;101299.88;5049710;28;20045;-67
2023/06/06 10:31:41;;;;;;;8.15;3.42;;;;;;;22.58;41.40;101298.72;5049054;28;20137;-67
2023/06/06 10:34:16;;;;;;;6.50;3.20;;;;;;;22.88;40.84;101296.03;5050570;28;20040;-67
2023/06/06 10:36:44;;;;;;;10.98;3.05;;;;;;;22.50;40.44;101300.69;5050164;28;20440;-67
2023/06/06 10:39:16;;;;;;;6.53;3.50;;;;;;;22.35;41.40;101304.78;5050331;28;20045;-67
2023/06/06 10:41:52;;;;;;;10.83;3.30;;;;;;;21.84;40.95;101302.06;5050298;28;20053;-67
2023/06/06 10:44:20;;;;;;;9.18;3.05;;;;;;;21.73;41.87;101299.97;5051137;28;20079;-67
2023/06/06 10:46:50;;;;;;;11.77;3.67;;;;;;;21.88;41.88;101296.16;5050184;28;20099;-68
2023/06/06 10:49:17;;;;;;;13.18;3.65;;;;;;;22.24;41.14;101296.25;5048732;28;20057;-67
2023/06/06 10:51:44;;;;;;;5.40;3.28;;;;;;;21.71;41.41;101296.66;5048695;28;20053;-67
2023/06/06 10:54:18;;;;;;;8.95;3.30;;;;;;;21.95;41.46;101300.50;5049473;28;20043;-67
2023/06/06 10:56:56;;;;;;;7.68;3.38;;;;;;;21.88;42.36;101293.41;5049274;28;20060;-67
2023/06/06 10:59:27;;;;;;;7.80;3.45;;;;;;;22.09;41.45;101287.56;5049400;28;20048;-67
2023/06/06 11:01:54;;;;;;;;;;;;;;;21.81;41.24;101291.56;5049346;28;20048;-68
2023/06/06 11:04:23;;;;;;;9.93;3.70;;;;;;;22.11;40.90;101285.44;5048272;28;20375;-68
2023/06/06 11:06:52;;;;;;;15.35;4.07;;;;;;;22.20;41.09;101286.84;5031241;28;20045;-67
2023/06/06 11:09:28;;;;;;;15.68;3.85;;;;;;;22.17;40.64;101281.81;5048730;28;20049;-66
2023/06/06 11:12:13;;;;;;;6.82;3.50;;;;;;;22.38;40.42;101277.81;5059818;28;20087;-66
2023/06/06 11:15:06;;;;;;;10.07;3.40;;;;;;;22.33;40.61;101278.50;5068370;28;20132;-67
2023/06/06 11:18:05;;;;;;;7.57;3.55;;;;;;;21.97;41.22;101270.22;5067984;28;20040;-67
2023/06/06 11:20:40;;;;;;;19.70;4.10;;;;;;;22.25;40.91;101275.22;5066764;28;20036;-67
2023/06/06 11:23:10;;;;;;;8.23;3.63;;;;;;;22.21;41.00;101279.47;5044732;28;20063;-67
2023/06/06 11:25:37;;;;;;;10.18;3.92;;;;;;;21.97;41.50;101281.97;5063086;28;20059;-67
2023/06/06 11:28:05;;;;;;;14.15;3.90;;;;;;;21.81;42.07;101279.81;5031145;28;20045;-68